sensor_id;sensor_type;location;lat;lon;timestamp;P1;durP1;ratioP1;P2;durP2;ratioP2
76552;SDS011;65395;53.168;18.156;2023-01-20T00:00:03;33.40;;;13.10;;
76552;SDS011;65395;53.168;18.156;2023-01-20T00:02:58;30.10;;;12.20;;
76552;SDS011;65395;53.168;18.156;2023-01-20T00:05:25;33.80;;;12.70;;
76552;SDS011;65395;53.168;18.156;2023-01-20T00:07:52;34.50;;;13.50;;
76552;SDS011;65395;53.168;18.156;2023-01-20T00:10:18;33.00;;;12.90;;
76552;SDS011;65395;53.168;18.156;2023-01-20T00:12:45;35.30;;;14.70;;
76552;SDS011;65395;53.168;18.156;2023-01-20T00:15:12;32.60;;;14.10;;
76552;SDS011;65395;53.168;18.156;2023-01-20T00:17:39;32.10;;;14.00;;
76552;SDS011;65395;53.168;18.156;2023-01-20T00:20:06;32.10;;;13.70;;
76552;SDS011;65395;53.168;18.156;2023-01-20T00:22:33;31.90;;;12.40;;
76552;SDS011;65395;53.168;18.156;2023-01-20T00:25:00;32.30;;;13.40;;
76552;SDS011;65395;53.168;18.156;2023-01-20T00:27:26;34.80;;;13.30;;
76552;SDS011;65395;53.168;18.156;2023-01-20T00:29:53;30.80;;;12.80;;
76552;SDS011;65395;53.168;18.156;2023-01-20T00:32:20;31.90;;;13.50;;
76552;SDS011;65395;53.168;18.156;2023-01-20T00:34:46;34.60;;;13.50;;
76552;SDS011;65395;53.168;18.156;2023-01-20T00:37:13;34.30;;;14.00;;
76552;SDS011;65395;53.168;18.156;2023-01-20T00:39:40;35.40;;;14.60;;
76552;SDS011;65395;53.168;18.156;2023-01-20T00:42:07;36.90;;;14.70;;
76552;SDS011;65395;53.168;18.156;2023-01-20T00:44:33;32.20;;;13.30;;
76552;SDS011;65395;53.168;18.156;2023-01-20T00:47:00;29.20;;;12.90;;
76552;SDS011;65395;53.168;18.156;2023-01-20T00:49:27;37.20;;;13.30;;
76552;SDS011;65395;53.168;18.156;2023-01-20T00:51:53;30.80;;;12.10;;
76552;SDS011;65395;53.168;18.156;2023-01-20T00:54:20;30.50;;;12.60;;
76552;SDS011;65395;53.168;18.156;2023-01-20T00:56:46;31.70;;;13.20;;
76552;SDS011;65395;53.168;18.156;2023-01-20T00:59:13;30.40;;;12.50;;
76552;SDS011;65395;53.168;18.156;2023-01-20T01:01:40;25.90;;;11.60;;
76552;SDS011;65395;53.168;18.156;2023-01-20T01:04:06;32.30;;;12.50;;
76552;SDS011;65395;53.168;18.156;2023-01-20T01:06:33;29.80;;;12.30;;
76552;SDS011;65395;53.168;18.156;2023-01-20T01:09:00;35.50;;;13.50;;
76552;SDS011;65395;53.168;18.156;2023-01-20T01:11:27;32.60;;;13.90;;
76552;SDS011;65395;53.168;18.156;2023-01-20T01:13:54;29.20;;;13.50;;
76552;SDS011;65395;53.168;18.156;2023-01-20T01:16:22;33.40;;;13.70;;
76552;SDS011;65395;53.168;18.156;2023-01-20T01:18:51;32.90;;;13.40;;
76552;SDS011;65395;53.168;18.156;2023-01-20T01:21:19;36.60;;;14.40;;
76552;SDS011;65395;53.168;18.156;2023-01-20T01:23:46;32.10;;;14.00;;
76552;SDS011;65395;53.168;18.156;2023-01-20T01:26:13;35.00;;;15.20;;
76552;SDS011;65395;53.168;18.156;2023-01-20T01:28:40;32.10;;;13.90;;
76552;SDS011;65395;53.168;18.156;2023-01-20T01:31:07;34.70;;;14.20;;
76552;SDS011;65395;53.168;18.156;2023-01-20T01:33:34;35.20;;;14.60;;
76552;SDS011;65395;53.168;18.156;2023-01-20T01:36:04;33.40;;;13.20;;
76552;SDS011;65395;53.168;18.156;2023-01-20T01:38:33;30.90;;;12.80;;
76552;SDS011;65395;53.168;18.156;2023-01-20T01:41:01;31.20;;;13.50;;
76552;SDS011;65395;53.168;18.156;2023-01-20T01:43:29;30.50;;;13.00;;
76552;SDS011;65395;53.168;18.156;2023-01-20T01:45:57;32.90;;;13.10;;
76552;SDS011;65395;53.168;18.156;2023-01-20T01:48:27;33.00;;;14.00;;
76552;SDS011;65395;53.168;18.156;2023-01-20T01:53:40;31.70;;;13.70;;
76552;SDS011;65395;53.168;18.156;2023-01-20T01:56:10;32.80;;;14.30;;
76552;SDS011;65395;53.168;18.156;2023-01-20T01:58:39;33.30;;;13.80;;
76552;SDS011;65395;53.168;18.156;2023-01-20T02:01:10;34.70;;;13.80;;
76552;SDS011;65395;53.168;18.156;2023-01-20T02:03:39;32.30;;;14.60;;
76552;SDS011;65395;53.168;18.156;2023-01-20T02:06:13;36.50;;;13.20;;
76552;SDS011;65395;53.168;18.156;2023-01-20T02:08:41;31.30;;;12.70;;
76552;SDS011;65395;53.168;18.156;2023-01-20T02:11:08;35.40;;;14.00;;
76552;SDS011;65395;53.168;18.156;2023-01-20T02:13:35;33.60;;;14.30;;
76552;SDS011;65395;53.168;18.156;2023-01-20T02:16:08;36.60;;;14.20;;
76552;SDS011;65395;53.168;18.156;2023-01-20T02:18:50;30.40;;;13.30;;
76552;SDS011;65395;53.168;18.156;2023-01-20T02:21:34;29.40;;;12.70;;
76552;SDS011;65395;53.168;18.156;2023-01-20T02:27:09;31.10;;;13.50;;
76552;SDS011;65395;53.168;18.156;2023-01-20T02:29:49;29.30;;;13.30;;
76552;SDS011;65395;53.168;18.156;2023-01-20T02:35:20;31.50;;;13.10;;
76552;SDS011;65395;53.168;18.156;2023-01-20T02:38:00;30.00;;;14.20;;
76552;SDS011;65395;53.168;18.156;2023-01-20T02:40:42;31.00;;;13.70;;
76552;SDS011;65395;53.168;18.156;2023-01-20T02:43:22;27.80;;;14.00;;
76552;SDS011;65395;53.168;18.156;2023-01-20T02:46:00;32.30;;;14.30;;
76552;SDS011;65395;53.168;18.156;2023-01-20T02:48:41;30.90;;;12.80;;
76552;SDS011;65395;53.168;18.156;2023-01-20T02:51:17;28.70;;;12.50;;
76552;SDS011;65395;53.168;18.156;2023-01-20T02:53:50;28.60;;;12.80;;
76552;SDS011;65395;53.168;18.156;2023-01-20T02:56:21;28.60;;;13.20;;
76552;SDS011;65395;53.168;18.156;2023-01-20T02:58:55;32.70;;;14.10;;
76552;SDS011;65395;53.168;18.156;2023-01-20T03:01:29;35.20;;;15.10;;
76552;SDS011;65395;53.168;18.156;2023-01-20T03:04:07;31.70;;;14.40;;
76552;SDS011;65395;53.168;18.156;2023-01-20T03:06:39;29.60;;;12.90;;
76552;SDS011;65395;53.168;18.156;2023-01-20T03:09:13;27.90;;;13.10;;
76552;SDS011;65395;53.168;18.156;2023-01-20T03:11:44;32.40;;;14.00;;
76552;SDS011;65395;53.168;18.156;2023-01-20T03:14:16;31.00;;;13.50;;
76552;SDS011;65395;53.168;18.156;2023-01-20T03:16:44;31.40;;;13.00;;
76552;SDS011;65395;53.168;18.156;2023-01-20T03:19:13;31.10;;;12.80;;
76552;SDS011;65395;53.168;18.156;2023-01-20T03:21:41;33.80;;;14.00;;
76552;SDS011;65395;53.168;18.156;2023-01-20T03:24:08;34.40;;;14.40;;
76552;SDS011;65395;53.168;18.156;2023-01-20T03:26:35;29.50;;;13.60;;
76552;SDS011;65395;53.168;18.156;2023-01-20T03:29:04;29.10;;;13.40;;
76552;SDS011;65395;53.168;18.156;2023-01-20T03:31:34;33.50;;;14.70;;
76552;SDS011;65395;53.168;18.156;2023-01-20T03:34:05;31.40;;;14.20;;
76552;SDS011;65395;53.168;18.156;2023-01-20T03:36:36;32.70;;;15.40;;
76552;SDS011;65395;53.168;18.156;2023-01-20T03:39:05;47.80;;;17.30;;
76552;SDS011;65395;53.168;18.156;2023-01-20T03:41:34;36.40;;;15.70;;
76552;SDS011;65395;53.168;18.156;2023-01-20T03:44:22;32.80;;;14.70;;
76552;SDS011;65395;53.168;18.156;2023-01-20T03:47:09;33.50;;;14.60;;
76552;SDS011;65395;53.168;18.156;2023-01-20T03:49:54;31.60;;;13.90;;
76552;SDS011;65395;53.168;18.156;2023-01-20T03:52:44;40.10;;;15.50;;
76552;SDS011;65395;53.168;18.156;2023-01-20T03:58:00;35.50;;;15.70;;
76552;SDS011;65395;53.168;18.156;2023-01-20T04:00:30;31.20;;;14.50;;
76552;SDS011;65395;53.168;18.156;2023-01-20T04:03:01;38.40;;;16.80;;
76552;SDS011;65395;53.168;18.156;2023-01-20T04:05:31;38.10;;;14.90;;
76552;SDS011;65395;53.168;18.156;2023-01-20T04:08:00;33.30;;;14.60;;
76552;SDS011;65395;53.168;18.156;2023-01-20T04:10:31;33.40;;;14.20;;
76552;SDS011;65395;53.168;18.156;2023-01-20T04:13:02;33.90;;;16.20;;
76552;SDS011;65395;53.168;18.156;2023-01-20T04:15:31;33.00;;;15.20;;
76552;SDS011;65395;53.168;18.156;2023-01-20T04:18:09;36.80;;;15.60;;
76552;SDS011;65395;53.168;18.156;2023-01-20T04:20:37;36.80;;;15.60;;
76552;SDS011;65395;53.168;18.156;2023-01-20T04:23:04;38.90;;;16.20;;
76552;SDS011;65395;53.168;18.156;2023-01-20T04:25:33;38.60;;;15.70;;
76552;SDS011;65395;53.168;18.156;2023-01-20T04:28:00;36.20;;;16.20;;
76552;SDS011;65395;53.168;18.156;2023-01-20T04:30:26;35.30;;;15.70;;
76552;SDS011;65395;53.168;18.156;2023-01-20T04:32:53;35.60;;;15.80;;
76552;SDS011;65395;53.168;18.156;2023-01-20T04:35:20;38.70;;;15.40;;
76552;SDS011;65395;53.168;18.156;2023-01-20T04:37:47;36.00;;;15.40;;
76552;SDS011;65395;53.168;18.156;2023-01-20T04:40:13;41.10;;;16.60;;
76552;SDS011;65395;53.168;18.156;2023-01-20T04:42:40;39.50;;;17.20;;
76552;SDS011;65395;53.168;18.156;2023-01-20T04:45:08;41.10;;;16.80;;
76552;SDS011;65395;53.168;18.156;2023-01-20T04:47:39;35.00;;;14.80;;
76552;SDS011;65395;53.168;18.156;2023-01-20T04:50:06;31.90;;;15.10;;
76552;SDS011;65395;53.168;18.156;2023-01-20T04:52:34;34.70;;;14.70;;
76552;SDS011;65395;53.168;18.156;2023-01-20T04:55:01;37.00;;;14.80;;
76552;SDS011;65395;53.168;18.156;2023-01-20T04:57:28;35.80;;;14.50;;
76552;SDS011;65395;53.168;18.156;2023-01-20T04:59:55;35.10;;;14.20;;
76552;SDS011;65395;53.168;18.156;2023-01-20T05:02:21;32.10;;;14.60;;
76552;SDS011;65395;53.168;18.156;2023-01-20T05:04:48;34.90;;;14.60;;
76552;SDS011;65395;53.168;18.156;2023-01-20T05:07:15;34.00;;;14.80;;
76552;SDS011;65395;53.168;18.156;2023-01-20T05:09:41;32.20;;;14.40;;
76552;SDS011;65395;53.168;18.156;2023-01-20T05:12:08;32.00;;;14.70;;
76552;SDS011;65395;53.168;18.156;2023-01-20T05:14:35;32.30;;;15.50;;
76552;SDS011;65395;53.168;18.156;2023-01-20T05:17:02;32.10;;;15.00;;
76552;SDS011;65395;53.168;18.156;2023-01-20T05:19:28;32.20;;;14.80;;
76552;SDS011;65395;53.168;18.156;2023-01-20T05:21:55;35.20;;;14.80;;
76552;SDS011;65395;53.168;18.156;2023-01-20T05:24:22;33.00;;;14.30;;
76552;SDS011;65395;53.168;18.156;2023-01-20T05:26:49;30.60;;;14.30;;
76552;SDS011;65395;53.168;18.156;2023-01-20T05:29:15;32.90;;;13.40;;
76552;SDS011;65395;53.168;18.156;2023-01-20T05:31:42;30.30;;;13.40;;
76552;SDS011;65395;53.168;18.156;2023-01-20T05:34:10;31.50;;;13.80;;
76552;SDS011;65395;53.168;18.156;2023-01-20T05:36:37;32.50;;;13.00;;
76552;SDS011;65395;53.168;18.156;2023-01-20T05:39:03;28.10;;;13.20;;
76552;SDS011;65395;53.168;18.156;2023-01-20T05:41:31;29.30;;;12.40;;
76552;SDS011;65395;53.168;18.156;2023-01-20T05:43:57;29.60;;;13.30;;
76552;SDS011;65395;53.168;18.156;2023-01-20T05:46:24;30.10;;;13.00;;
76552;SDS011;65395;53.168;18.156;2023-01-20T05:48:51;29.30;;;13.30;;
76552;SDS011;65395;53.168;18.156;2023-01-20T05:51:18;26.10;;;12.60;;
76552;SDS011;65395;53.168;18.156;2023-01-20T05:53:44;27.30;;;12.70;;
76552;SDS011;65395;53.168;18.156;2023-01-20T05:56:11;30.20;;;13.40;;
76552;SDS011;65395;53.168;18.156;2023-01-20T05:58:41;29.00;;;12.30;;
76552;SDS011;65395;53.168;18.156;2023-01-20T06:01:09;31.30;;;14.10;;
76552;SDS011;65395;53.168;18.156;2023-01-20T06:03:37;28.40;;;12.30;;
76552;SDS011;65395;53.168;18.156;2023-01-20T06:06:06;28.50;;;12.60;;
76552;SDS011;65395;53.168;18.156;2023-01-20T06:08:34;29.70;;;12.60;;
76552;SDS011;65395;53.168;18.156;2023-01-20T06:11:01;35.30;;;14.60;;
76552;SDS011;65395;53.168;18.156;2023-01-20T06:13:28;30.50;;;13.50;;
76552;SDS011;65395;53.168;18.156;2023-01-20T06:15:54;27.20;;;13.00;;
76552;SDS011;65395;53.168;18.156;2023-01-20T06:18:22;29.80;;;13.60;;
76552;SDS011;65395;53.168;18.156;2023-01-20T06:20:49;28.20;;;13.30;;
76552;SDS011;65395;53.168;18.156;2023-01-20T06:23:16;33.20;;;14.70;;
76552;SDS011;65395;53.168;18.156;2023-01-20T06:25:44;31.50;;;14.70;;
76552;SDS011;65395;53.168;18.156;2023-01-20T06:28:10;27.10;;;12.70;;
76552;SDS011;65395;53.168;18.156;2023-01-20T06:30:37;30.30;;;14.40;;
76552;SDS011;65395;53.168;18.156;2023-01-20T06:33:03;32.10;;;14.50;;
76552;SDS011;65395;53.168;18.156;2023-01-20T06:35:35;29.40;;;13.90;;
76552;SDS011;65395;53.168;18.156;2023-01-20T06:38:03;29.70;;;13.40;;
76552;SDS011;65395;53.168;18.156;2023-01-20T06:40:30;31.20;;;12.90;;
76552;SDS011;65395;53.168;18.156;2023-01-20T06:42:57;27.50;;;12.60;;
76552;SDS011;65395;53.168;18.156;2023-01-20T06:45:24;31.10;;;13.00;;
76552;SDS011;65395;53.168;18.156;2023-01-20T06:47:51;26.60;;;12.20;;
76552;SDS011;65395;53.168;18.156;2023-01-20T06:50:18;29.70;;;12.80;;
76552;SDS011;65395;53.168;18.156;2023-01-20T06:52:44;30.00;;;14.00;;
76552;SDS011;65395;53.168;18.156;2023-01-20T06:55:11;27.60;;;12.80;;
76552;SDS011;65395;53.168;18.156;2023-01-20T06:57:38;27.20;;;12.80;;
76552;SDS011;65395;53.168;18.156;2023-01-20T07:00:05;26.00;;;12.40;;
76552;SDS011;65395;53.168;18.156;2023-01-20T07:02:32;28.70;;;13.60;;
76552;SDS011;65395;53.168;18.156;2023-01-20T07:04:59;27.70;;;13.50;;
76552;SDS011;65395;53.168;18.156;2023-01-20T07:07:26;28.90;;;13.40;;
76552;SDS011;65395;53.168;18.156;2023-01-20T07:09:53;25.10;;;10.90;;
76552;SDS011;65395;53.168;18.156;2023-01-20T07:12:20;32.90;;;13.90;;
76552;SDS011;65395;53.168;18.156;2023-01-20T07:14:47;29.10;;;13.90;;
76552;SDS011;65395;53.168;18.156;2023-01-20T07:17:13;26.40;;;12.40;;
76552;SDS011;65395;53.168;18.156;2023-01-20T07:19:40;27.40;;;12.60;;
76552;SDS011;65395;53.168;18.156;2023-01-20T07:22:06;25.70;;;12.00;;
76552;SDS011;65395;53.168;18.156;2023-01-20T07:24:33;30.80;;;13.50;;
76552;SDS011;65395;53.168;18.156;2023-01-20T07:27:00;35.10;;;13.80;;
76552;SDS011;65395;53.168;18.156;2023-01-20T07:29:27;31.60;;;13.10;;
76552;SDS011;65395;53.168;18.156;2023-01-20T07:31:54;29.20;;;13.50;;
76552;SDS011;65395;53.168;18.156;2023-01-20T07:34:21;30.50;;;14.00;;
76552;SDS011;65395;53.168;18.156;2023-01-20T07:36:50;30.30;;;12.30;;
76552;SDS011;65395;53.168;18.156;2023-01-20T07:39:18;26.70;;;11.40;;
76552;SDS011;65395;53.168;18.156;2023-01-20T07:41:45;28.10;;;11.90;;
76552;SDS011;65395;53.168;18.156;2023-01-20T07:44:15;30.80;;;13.00;;
76552;SDS011;65395;53.168;18.156;2023-01-20T07:46:42;24.70;;;11.10;;
76552;SDS011;65395;53.168;18.156;2023-01-20T07:49:09;24.10;;;11.10;;
76552;SDS011;65395;53.168;18.156;2023-01-20T07:51:36;27.00;;;11.90;;
76552;SDS011;65395;53.168;18.156;2023-01-20T07:54:05;27.00;;;11.70;;
76552;SDS011;65395;53.168;18.156;2023-01-20T07:56:32;28.30;;;12.50;;
76552;SDS011;65395;53.168;18.156;2023-01-20T07:58:59;29.60;;;13.40;;
76552;SDS011;65395;53.168;18.156;2023-01-20T08:01:27;29.90;;;12.60;;
76552;SDS011;65395;53.168;18.156;2023-01-20T08:03:56;29.40;;;12.80;;
76552;SDS011;65395;53.168;18.156;2023-01-20T08:06:26;28.20;;;12.90;;
76552;SDS011;65395;53.168;18.156;2023-01-20T08:08:54;30.00;;;13.00;;
76552;SDS011;65395;53.168;18.156;2023-01-20T08:11:21;26.80;;;12.40;;
76552;SDS011;65395;53.168;18.156;2023-01-20T08:13:48;30.00;;;13.40;;
76552;SDS011;65395;53.168;18.156;2023-01-20T08:16:16;30.80;;;12.20;;
76552;SDS011;65395;53.168;18.156;2023-01-20T08:18:44;34.30;;;14.30;;
76552;SDS011;65395;53.168;18.156;2023-01-20T08:23:50;27.70;;;11.90;;
76552;SDS011;65395;53.168;18.156;2023-01-20T08:26:17;30.70;;;12.20;;
76552;SDS011;65395;53.168;18.156;2023-01-20T08:28:44;31.80;;;13.00;;
76552;SDS011;65395;53.168;18.156;2023-01-20T08:31:13;27.60;;;13.30;;
76552;SDS011;65395;53.168;18.156;2023-01-20T08:33:42;27.10;;;12.60;;
76552;SDS011;65395;53.168;18.156;2023-01-20T08:36:12;27.40;;;13.00;;
76552;SDS011;65395;53.168;18.156;2023-01-20T08:38:41;27.30;;;12.60;;
76552;SDS011;65395;53.168;18.156;2023-01-20T08:41:09;26.70;;;13.10;;
76552;SDS011;65395;53.168;18.156;2023-01-20T08:43:38;28.40;;;13.20;;
76552;SDS011;65395;53.168;18.156;2023-01-20T08:46:07;27.70;;;13.20;;
76552;SDS011;65395;53.168;18.156;2023-01-20T08:48:36;28.70;;;13.30;;
76552;SDS011;65395;53.168;18.156;2023-01-20T08:51:09;28.60;;;12.60;;
76552;SDS011;65395;53.168;18.156;2023-01-20T08:53:39;29.10;;;13.60;;
76552;SDS011;65395;53.168;18.156;2023-01-20T08:56:06;26.90;;;12.30;;
76552;SDS011;65395;53.168;18.156;2023-01-20T08:58:34;29.30;;;14.20;;
76552;SDS011;65395;53.168;18.156;2023-01-20T09:01:01;29.70;;;13.20;;
76552;SDS011;65395;53.168;18.156;2023-01-20T09:03:34;31.00;;;12.90;;
76552;SDS011;65395;53.168;18.156;2023-01-20T09:06:02;37.50;;;14.40;;
76552;SDS011;65395;53.168;18.156;2023-01-20T09:08:29;29.00;;;13.50;;
76552;SDS011;65395;53.168;18.156;2023-01-20T09:11:05;32.50;;;14.50;;
76552;SDS011;65395;53.168;18.156;2023-01-20T09:13:33;30.30;;;13.60;;
76552;SDS011;65395;53.168;18.156;2023-01-20T09:16:01;31.50;;;13.70;;
76552;SDS011;65395;53.168;18.156;2023-01-20T09:18:30;32.60;;;14.70;;
76552;SDS011;65395;53.168;18.156;2023-01-20T09:20:58;29.30;;;13.50;;
76552;SDS011;65395;53.168;18.156;2023-01-20T09:23:27;33.30;;;15.30;;
76552;SDS011;65395;53.168;18.156;2023-01-20T09:25:54;32.90;;;14.60;;
76552;SDS011;65395;53.168;18.156;2023-01-20T09:28:24;31.30;;;14.70;;
76552;SDS011;65395;53.168;18.156;2023-01-20T09:30:59;33.70;;;15.00;;
76552;SDS011;65395;53.168;18.156;2023-01-20T09:33:30;32.40;;;14.60;;
76552;SDS011;65395;53.168;18.156;2023-01-20T09:35:58;33.90;;;14.80;;
76552;SDS011;65395;53.168;18.156;2023-01-20T09:38:25;34.10;;;14.90;;
76552;SDS011;65395;53.168;18.156;2023-01-20T09:41:05;31.40;;;15.20;;
76552;SDS011;65395;53.168;18.156;2023-01-20T09:44:08;32.40;;;14.80;;
76552;SDS011;65395;53.168;18.156;2023-01-20T09:49:53;33.20;;;14.70;;
76552;SDS011;65395;53.168;18.156;2023-01-20T09:52:41;32.90;;;14.70;;
76552;SDS011;65395;53.168;18.156;2023-01-20T09:58:09;28.50;;;12.50;;
76552;SDS011;65395;53.168;18.156;2023-01-20T10:00:48;35.60;;;15.00;;
76552;SDS011;65395;53.168;18.156;2023-01-20T10:03:22;29.40;;;13.50;;
76552;SDS011;65395;53.168;18.156;2023-01-20T10:05:55;29.00;;;13.10;;
76552;SDS011;65395;53.168;18.156;2023-01-20T10:08:33;26.30;;;12.40;;
76552;SDS011;65395;53.168;18.156;2023-01-20T10:11:07;30.50;;;14.00;;
76552;SDS011;65395;53.168;18.156;2023-01-20T10:13:39;26.10;;;12.70;;
76552;SDS011;65395;53.168;18.156;2023-01-20T10:16:27;28.30;;;13.20;;
76552;SDS011;65395;53.168;18.156;2023-01-20T10:19:01;28.70;;;12.00;;
76552;SDS011;65395;53.168;18.156;2023-01-20T10:21:40;27.80;;;12.50;;
76552;SDS011;65395;53.168;18.156;2023-01-20T10:24:15;27.20;;;13.10;;
76552;SDS011;65395;53.168;18.156;2023-01-20T10:26:49;29.00;;;14.00;;
76552;SDS011;65395;53.168;18.156;2023-01-20T10:32:02;30.80;;;14.40;;
76552;SDS011;65395;53.168;18.156;2023-01-20T10:34:40;31.90;;;14.00;;
76552;SDS011;65395;53.168;18.156;2023-01-20T10:37:12;34.90;;;14.50;;
76552;SDS011;65395;53.168;18.156;2023-01-20T10:39:42;31.90;;;13.80;;
76552;SDS011;65395;53.168;18.156;2023-01-20T10:42:20;27.00;;;14.00;;
76552;SDS011;65395;53.168;18.156;2023-01-20T10:44:47;29.60;;;14.20;;
76552;SDS011;65395;53.168;18.156;2023-01-20T10:47:24;28.10;;;14.10;;
76552;SDS011;65395;53.168;18.156;2023-01-20T10:50:02;23.40;;;12.00;;
76552;SDS011;65395;53.168;18.156;2023-01-20T10:52:57;23.90;;;12.00;;
76552;SDS011;65395;53.168;18.156;2023-01-20T10:58:33;22.50;;;11.70;;
76552;SDS011;65395;53.168;18.156;2023-01-20T11:01:04;24.20;;;10.90;;
76552;SDS011;65395;53.168;18.156;2023-01-20T11:03:36;21.50;;;11.30;;
76552;SDS011;65395;53.168;18.156;2023-01-20T11:06:06;19.90;;;10.60;;
76552;SDS011;65395;53.168;18.156;2023-01-20T11:08:41;23.40;;;11.40;;
76552;SDS011;65395;53.168;18.156;2023-01-20T11:11:09;21.90;;;11.00;;
76552;SDS011;65395;53.168;18.156;2023-01-20T11:13:39;22.50;;;11.10;;
76552;SDS011;65395;53.168;18.156;2023-01-20T11:16:10;23.40;;;11.80;;
76552;SDS011;65395;53.168;18.156;2023-01-20T11:18:42;24.20;;;12.30;;
76552;SDS011;65395;53.168;18.156;2023-01-20T11:21:22;26.10;;;13.20;;
76552;SDS011;65395;53.168;18.156;2023-01-20T11:23:51;25.30;;;13.60;;
76552;SDS011;65395;53.168;18.156;2023-01-20T11:26:26;25.80;;;13.00;;
76552;SDS011;65395;53.168;18.156;2023-01-20T11:29:21;23.90;;;12.30;;
76552;SDS011;65395;53.168;18.156;2023-01-20T11:31:54;23.20;;;12.40;;
76552;SDS011;65395;53.168;18.156;2023-01-20T11:34:25;25.80;;;12.30;;
76552;SDS011;65395;53.168;18.156;2023-01-20T11:40:03;24.20;;;12.70;;
76552;SDS011;65395;53.168;18.156;2023-01-20T11:42:48;25.70;;;12.10;;
76552;SDS011;65395;53.168;18.156;2023-01-20T11:47:58;26.30;;;12.40;;
76552;SDS011;65395;53.168;18.156;2023-01-20T11:50:31;23.00;;;11.00;;
76552;SDS011;65395;53.168;18.156;2023-01-20T11:55:46;30.90;;;13.10;;
76552;SDS011;65395;53.168;18.156;2023-01-20T11:58:16;31.40;;;15.10;;
76552;SDS011;65395;53.168;18.156;2023-01-20T12:00:45;30.50;;;14.20;;
76552;SDS011;65395;53.168;18.156;2023-01-20T12:06:01;30.70;;;15.10;;
76552;SDS011;65395;53.168;18.156;2023-01-20T12:08:42;27.40;;;13.40;;
76552;SDS011;65395;53.168;18.156;2023-01-20T12:11:16;27.40;;;13.70;;
76552;SDS011;65395;53.168;18.156;2023-01-20T12:13:55;31.50;;;15.30;;
76552;SDS011;65395;53.168;18.156;2023-01-20T12:16:52;30.10;;;14.20;;
76552;SDS011;65395;53.168;18.156;2023-01-20T12:19:32;31.70;;;15.30;;
76552;SDS011;65395;53.168;18.156;2023-01-20T12:22:10;32.20;;;15.90;;
76552;SDS011;65395;53.168;18.156;2023-01-20T12:27:36;30.90;;;15.40;;
76552;SDS011;65395;53.168;18.156;2023-01-20T12:30:15;34.80;;;16.30;;
76552;SDS011;65395;53.168;18.156;2023-01-20T12:32:52;36.10;;;17.10;;
76552;SDS011;65395;53.168;18.156;2023-01-20T12:35:20;33.10;;;15.30;;
76552;SDS011;65395;53.168;18.156;2023-01-20T12:37:54;33.10;;;15.80;;
76552;SDS011;65395;53.168;18.156;2023-01-20T12:46:16;35.70;;;14.70;;
76552;SDS011;65395;53.168;18.156;2023-01-20T12:48:54;28.40;;;13.60;;
76552;SDS011;65395;53.168;18.156;2023-01-20T12:54:31;32.80;;;16.10;;
76552;SDS011;65395;53.168;18.156;2023-01-20T12:57:10;29.80;;;14.80;;
76552;SDS011;65395;53.168;18.156;2023-01-20T13:00:05;30.80;;;14.80;;
76552;SDS011;65395;53.168;18.156;2023-01-20T13:02:50;28.90;;;13.70;;
76552;SDS011;65395;53.168;18.156;2023-01-20T13:05:33;30.40;;;15.00;;
76552;SDS011;65395;53.168;18.156;2023-01-20T13:11:15;32.00;;;15.10;;
76552;SDS011;65395;53.168;18.156;2023-01-20T13:14:01;30.90;;;13.70;;
76552;SDS011;65395;53.168;18.156;2023-01-20T13:16:52;29.00;;;13.60;;
76552;SDS011;65395;53.168;18.156;2023-01-20T13:19:31;29.70;;;13.30;;
76552;SDS011;65395;53.168;18.156;2023-01-20T13:22:01;30.30;;;14.00;;
76552;SDS011;65395;53.168;18.156;2023-01-20T13:24:44;27.70;;;12.70;;
76552;SDS011;65395;53.168;18.156;2023-01-20T13:27:13;33.30;;;15.40;;
76552;SDS011;65395;53.168;18.156;2023-01-20T13:29:51;33.50;;;15.20;;
76552;SDS011;65395;53.168;18.156;2023-01-20T13:32:24;34.80;;;14.40;;
76552;SDS011;65395;53.168;18.156;2023-01-20T13:34:57;29.00;;;13.60;;
76552;SDS011;65395;53.168;18.156;2023-01-20T13:37:27;29.70;;;13.70;;
76552;SDS011;65395;53.168;18.156;2023-01-20T13:39:56;32.00;;;13.50;;
76552;SDS011;65395;53.168;18.156;2023-01-20T13:42:45;30.00;;;14.00;;
76552;SDS011;65395;53.168;18.156;2023-01-20T13:45:15;32.10;;;14.10;;
76552;SDS011;65395;53.168;18.156;2023-01-20T13:50:27;32.50;;;14.70;;
76552;SDS011;65395;53.168;18.156;2023-01-20T13:53:03;34.00;;;15.70;;
76552;SDS011;65395;53.168;18.156;2023-01-20T13:55:53;38.30;;;17.20;;
76552;SDS011;65395;53.168;18.156;2023-01-20T13:58:23;40.10;;;17.20;;
76552;SDS011;65395;53.168;18.156;2023-01-20T14:00:54;35.70;;;17.00;;
76552;SDS011;65395;53.168;18.156;2023-01-20T14:03:24;35.60;;;15.80;;
76552;SDS011;65395;53.168;18.156;2023-01-20T14:05:59;37.60;;;15.50;;
76552;SDS011;65395;53.168;18.156;2023-01-20T14:08:40;39.80;;;17.10;;
76552;SDS011;65395;53.168;18.156;2023-01-20T14:11:11;36.10;;;16.00;;
76552;SDS011;65395;53.168;18.156;2023-01-20T14:13:40;42.20;;;17.40;;
76552;SDS011;65395;53.168;18.156;2023-01-20T14:16:16;45.80;;;18.30;;
76552;SDS011;65395;53.168;18.156;2023-01-20T14:18:54;36.10;;;15.50;;
76552;SDS011;65395;53.168;18.156;2023-01-20T14:21:26;37.40;;;16.60;;
76552;SDS011;65395;53.168;18.156;2023-01-20T14:23:54;39.40;;;17.10;;
76552;SDS011;65395;53.168;18.156;2023-01-20T14:26:24;41.10;;;18.40;;
76552;SDS011;65395;53.168;18.156;2023-01-20T14:28:54;43.40;;;18.40;;
76552;SDS011;65395;53.168;18.156;2023-01-20T14:36:58;38.00;;;16.10;;
76552;SDS011;65395;53.168;18.156;2023-01-20T14:39:29;32.30;;;14.00;;
76552;SDS011;65395;53.168;18.156;2023-01-20T14:41:57;35.50;;;14.40;;
76552;SDS011;65395;53.168;18.156;2023-01-20T14:44:27;33.30;;;13.90;;
76552;SDS011;65395;53.168;18.156;2023-01-20T14:46:56;35.60;;;14.20;;
76552;SDS011;65395;53.168;18.156;2023-01-20T14:49:29;37.30;;;16.00;;
76552;SDS011;65395;53.168;18.156;2023-01-20T14:51:58;39.90;;;17.20;;
76552;SDS011;65395;53.168;18.156;2023-01-20T14:54:27;42.20;;;17.30;;
76552;SDS011;65395;53.168;18.156;2023-01-20T15:00:00;41.30;;;16.80;;
76552;SDS011;65395;53.168;18.156;2023-01-20T15:02:37;43.80;;;18.20;;
76552;SDS011;65395;53.168;18.156;2023-01-20T15:10:44;46.90;;;16.80;;
76552;SDS011;65395;53.168;18.156;2023-01-20T15:13:20;41.50;;;16.80;;
76552;SDS011;65395;53.168;18.156;2023-01-20T15:16:04;38.50;;;14.80;;
76552;SDS011;65395;53.168;18.156;2023-01-20T15:18:33;41.70;;;16.80;;
76552;SDS011;65395;53.168;18.156;2023-01-20T15:21:10;41.40;;;16.10;;
76552;SDS011;65395;53.168;18.156;2023-01-20T15:23:47;40.30;;;17.00;;
76552;SDS011;65395;53.168;18.156;2023-01-20T15:28:55;47.90;;;18.50;;
76552;SDS011;65395;53.168;18.156;2023-01-20T15:31:23;49.40;;;19.70;;
76552;SDS011;65395;53.168;18.156;2023-01-20T15:33:51;48.90;;;19.40;;
76552;SDS011;65395;53.168;18.156;2023-01-20T15:36:22;52.20;;;20.80;;
76552;SDS011;65395;53.168;18.156;2023-01-20T15:38:58;47.40;;;19.10;;
76552;SDS011;65395;53.168;18.156;2023-01-20T15:41:25;43.00;;;18.20;;